sensor_id;sensor_type;location;lat;lon;timestamp;temperature;humidity
72762;SHT30;60886;55.034;73.150;2023-04-07T00:02:31;0.55;76.35
72762;SHT30;60886;55.034;73.150;2023-04-07T00:05:33;0.37;76.94
72762;SHT30;60886;55.034;73.150;2023-04-07T00:08:34;0.21;77.55
72762;SHT30;60886;55.034;73.150;2023-04-07T00:11:36;0.11;78.16
72762;SHT30;60886;55.034;73.150;2023-04-07T00:14:38;-0.01;78.19
72762;SHT30;60886;55.034;73.150;2023-04-07T00:17:39;-0.13;78.97
72762;SHT30;60886;55.034;73.150;2023-04-07T00:20:46;-0.30;79.81
72762;SHT30;60886;55.034;73.150;2023-04-07T00:23:53;-0.38;80.22
72762;SHT30;60886;55.034;73.150;2023-04-07T00:26:54;-0.44;80.67
72762;SHT30;60886;55.034;73.150;2023-04-07T00:29:57;-0.56;81.01
72762;SHT30;60886;55.034;73.150;2023-04-07T00:32:59;-0.61;80.83
72762;SHT30;60886;55.034;73.150;2023-04-07T00:36:00;-0.63;81.62
72762;SHT30;60886;55.034;73.150;2023-04-07T00:39:02;-0.67;82.14
72762;SHT30;60886;55.034;73.150;2023-04-07T00:42:08;-0.68;83.26
72762;SHT30;60886;55.034;73.150;2023-04-07T00:45:10;-0.63;83.83
72762;SHT30;60886;55.034;73.150;2023-04-07T00:48:12;-0.61;83.03
72762;SHT30;60886;55.034;73.150;2023-04-07T00:51:14;-0.63;82.27
72762;SHT30;60886;55.034;73.150;2023-04-07T00:54:17;-0.61;82.10
72762;SHT30;60886;55.034;73.150;2023-04-07T00:57:18;-0.60;82.57
72762;SHT30;60886;55.034;73.150;2023-04-07T01:00:20;-0.61;82.46
72762;SHT30;60886;55.034;73.150;2023-04-07T01:03:38;-0.58;81.95
72762;SHT30;60886;55.034;73.150;2023-04-07T01:06:47;-0.56;80.83
72762;SHT30;60886;55.034;73.150;2023-04-07T01:10:04;-0.64;80.40
72762;SHT30;60886;55.034;73.150;2023-04-07T01:16:40;-0.68;79.52
72762;SHT30;60886;55.034;73.150;2023-04-07T01:19:47;-0.70;79.28
72762;SHT30;60886;55.034;73.150;2023-04-07T01:22:56;-0.73;79.61
72762;SHT30;60886;55.034;73.150;2023-04-07T01:32:29;-0.73;80.32
72762;SHT30;60886;55.034;73.150;2023-04-07T01:35:34;-0.68;79.86
72762;SHT30;60886;55.034;73.150;2023-04-07T01:38:43;-0.74;79.83
72762;SHT30;60886;55.034;73.150;2023-04-07T01:41:45;-0.73;79.05
72762;SHT30;60886;55.034;73.150;2023-04-07T01:44:47;-0.67;79.56
72762;SHT30;60886;55.034;73.150;2023-04-07T01:47:49;-0.70;78.63
72762;SHT30;60886;55.034;73.150;2023-04-07T01:51:03;-0.66;78.61
72762;SHT30;60886;55.034;73.150;2023-04-07T01:54:16;-0.63;77.87
72762;SHT30;60886;55.034;73.150;2023-04-07T01:57:18;-0.60;77.51
72762;SHT30;60886;55.034;73.150;2023-04-07T02:00:25;-0.58;76.04
72762;SHT30;60886;55.034;73.150;2023-04-07T02:03:55;-0.56;76.36
72762;SHT30;60886;55.034;73.150;2023-04-07T02:07:28;-0.57;75.93
72762;SHT30;60886;55.034;73.150;2023-04-07T02:10:34;-0.53;76.96
72762;SHT30;60886;55.034;73.150;2023-04-07T02:13:37;-0.58;76.71
72762;SHT30;60886;55.034;73.150;2023-04-07T02:17:03;-0.77;75.36
72762;SHT30;60886;55.034;73.150;2023-04-07T02:20:11;-0.91;75.33
72762;SHT30;60886;55.034;73.150;2023-04-07T02:23:13;-1.09;73.92
72762;SHT30;60886;55.034;73.150;2023-04-07T02:26:15;-1.28;74.85
72762;SHT30;60886;55.034;73.150;2023-04-07T02:29:17;-1.42;74.94
72762;SHT30;60886;55.034;73.150;2023-04-07T02:32:18;-1.55;74.73
72762;SHT30;60886;55.034;73.150;2023-04-07T02:35:20;-1.65;75.05
72762;SHT30;60886;55.034;73.150;2023-04-07T02:38:31;-1.69;75.23
72762;SHT30;60886;55.034;73.150;2023-04-07T02:41:33;-1.73;74.75
72762;SHT30;60886;55.034;73.150;2023-04-07T02:44:34;-1.79;74.59
72762;SHT30;60886;55.034;73.150;2023-04-07T02:47:37;-1.82;74.71
72762;SHT30;60886;55.034;73.150;2023-04-07T02:50:39;-1.86;74.30
72762;SHT30;60886;55.034;73.150;2023-04-07T02:53:41;-1.87;75.08
72762;SHT30;60886;55.034;73.150;2023-04-07T02:56:43;-1.87;74.56
72762;SHT30;60886;55.034;73.150;2023-04-07T02:59:44;-1.90;75.12
72762;SHT30;60886;55.034;73.150;2023-04-07T03:02:48;-1.83;75.30
72762;SHT30;60886;55.034;73.150;2023-04-07T03:05:50;-1.74;75.26
72762;SHT30;60886;55.034;73.150;2023-04-07T03:08:55;-1.74;73.06
72762;SHT30;60886;55.034;73.150;2023-04-07T03:11:56;-1.72;71.87
72762;SHT30;60886;55.034;73.150;2023-04-07T03:15:10;-1.82;71.14
72762;SHT30;60886;55.034;73.150;2023-04-07T03:18:23;-1.90;70.55
72762;SHT30;60886;55.034;73.150;2023-04-07T03:21:25;-1.97;69.52
72762;SHT30;60886;55.034;73.150;2023-04-07T03:24:28;-2.08;69.50
72762;SHT30;60886;55.034;73.150;2023-04-07T03:27:30;-2.15;68.98
72762;SHT30;60886;55.034;73.150;2023-04-07T03:30:32;-2.31;68.71
72762;SHT30;60886;55.034;73.150;2023-04-07T03:33:33;-2.34;70.15
72762;SHT30;60886;55.034;73.150;2023-04-07T03:36:35;-2.33;69.37
72762;SHT30;60886;55.034;73.150;2023-04-07T03:39:39;-2.34;69.05
72762;SHT30;60886;55.034;73.150;2023-04-07T03:42:54;-2.26;69.07
72762;SHT30;60886;55.034;73.150;2023-04-07T03:45:56;-2.27;67.53
72762;SHT30;60886;55.034;73.150;2023-04-07T03:49:03;-2.48;67.09
72762;SHT30;60886;55.034;73.150;2023-04-07T03:52:07;-2.52;67.83
72762;SHT30;60886;55.034;73.150;2023-04-07T03:55:10;-2.61;67.49
72762;SHT30;60886;55.034;73.150;2023-04-07T03:58:21;-2.51;67.85
72762;SHT30;60886;55.034;73.150;2023-04-07T04:01:23;-2.38;68.73
72762;SHT30;60886;55.034;73.150;2023-04-07T04:04:25;-2.47;66.15
72762;SHT30;60886;55.034;73.150;2023-04-07T04:07:27;-2.45;66.64
72762;SHT30;60886;55.034;73.150;2023-04-07T04:10:37;-2.66;65.54
72762;SHT30;60886;55.034;73.150;2023-04-07T04:13:39;-2.76;65.90
72762;SHT30;60886;55.034;73.150;2023-04-07T04:16:41;-2.75;66.44
72762;SHT30;60886;55.034;73.150;2023-04-07T04:19:56;-2.85;65.38
72762;SHT30;60886;55.034;73.150;2023-04-07T04:23:09;-2.86;65.57
72762;SHT30;60886;55.034;73.150;2023-04-07T04:26:11;-2.88;66.71
72762;SHT30;60886;55.034;73.150;2023-04-07T04:29:15;-2.96;65.63
72762;SHT30;60886;55.034;73.150;2023-04-07T04:32:19;-3.04;66.22
72762;SHT30;60886;55.034;73.150;2023-04-07T04:35:21;-3.16;65.67
72762;SHT30;60886;55.034;73.150;2023-04-07T04:38:38;-3.24;66.09
72762;SHT30;60886;55.034;73.150;2023-04-07T04:41:59;-3.09;67.54
72762;SHT30;60886;55.034;73.150;2023-04-07T04:45:10;-2.99;66.12
72762;SHT30;60886;55.034;73.150;2023-04-07T04:48:14;-2.91;66.34
72762;SHT30;60886;55.034;73.150;2023-04-07T04:51:19;-2.86;65.17
72762;SHT30;60886;55.034;73.150;2023-04-07T04:54:30;-2.69;65.55
72762;SHT30;60886;55.034;73.150;2023-04-07T04:57:34;-2.71;64.91
72762;SHT30;60886;55.034;73.150;2023-04-07T05:00:40;-2.86;64.19
72762;SHT30;60886;55.034;73.150;2023-04-07T05:03:42;-2.79;65.50
72762;SHT30;60886;55.034;73.150;2023-04-07T05:06:55;-2.83;64.99
72762;SHT30;60886;55.034;73.150;2023-04-07T05:10:10;-3.00;64.23
72762;SHT30;60886;55.034;73.150;2023-04-07T05:13:18;-2.92;66.33
72762;SHT30;60886;55.034;73.150;2023-04-07T05:16:20;-2.93;64.20
72762;SHT30;60886;55.034;73.150;2023-04-07T05:19:22;-2.93;64.85
72762;SHT30;60886;55.034;73.150;2023-04-07T05:22:31;-2.82;64.21
72762;SHT30;60886;55.034;73.150;2023-04-07T05:25:33;-2.66;65.64
72762;SHT30;60886;55.034;73.150;2023-04-07T05:28:38;-2.76;60.98
72762;SHT30;60886;55.034;73.150;2023-04-07T05:31:46;-2.81;63.05
72762;SHT30;60886;55.034;73.150;2023-04-07T05:34:49;-2.66;61.65
72762;SHT30;60886;55.034;73.150;2023-04-07T05:37:51;-2.59;62.43
72762;SHT30;60886;55.034;73.150;2023-04-07T05:40:53;-2.49;60.92
72762;SHT30;60886;55.034;73.150;2023-04-07T05:43:59;-2.45;62.03
72762;SHT30;60886;55.034;73.150;2023-04-07T05:47:01;-2.36;61.52
72762;SHT30;60886;55.034;73.150;2023-04-07T05:50:10;-2.40;61.46
72762;SHT30;60886;55.034;73.150;2023-04-07T05:53:16;-2.41;61.60
72762;SHT30;60886;55.034;73.150;2023-04-07T05:56:18;-2.27;61.70
72762;SHT30;60886;55.034;73.150;2023-04-07T05:59:24;-2.23;61.21
72762;SHT30;60886;55.034;73.150;2023-04-07T06:02:26;-2.26;61.69
72762;SHT30;60886;55.034;73.150;2023-04-07T06:05:28;-2.17;62.59
72762;SHT30;60886;55.034;73.150;2023-04-07T06:08:34;-2.21;62.01
72762;SHT30;60886;55.034;73.150;2023-04-07T06:11:36;-2.26;62.82
72762;SHT30;60886;55.034;73.150;2023-04-07T06:14:37;-2.23;61.69
72762;SHT30;60886;55.034;73.150;2023-04-07T06:17:39;-2.28;62.84
72762;SHT30;60886;55.034;73.150;2023-04-07T06:20:44;-2.28;61.01
72762;SHT30;60886;55.034;73.150;2023-04-07T06:23:50;-2.36;60.56
72762;SHT30;60886;55.034;73.150;2023-04-07T06:26:54;-2.47;60.84
72762;SHT30;60886;55.034;73.150;2023-04-07T06:29:58;-2.33;61.42
72762;SHT30;60886;55.034;73.150;2023-04-07T06:33:09;-2.31;61.41
72762;SHT30;60886;55.034;73.150;2023-04-07T06:36:11;-2.38;59.89
72762;SHT30;60886;55.034;73.150;2023-04-07T06:39:12;-2.47;60.97
72762;SHT30;60886;55.034;73.150;2023-04-07T06:42:19;-2.42;62.17
72762;SHT30;60886;55.034;73.150;2023-04-07T06:45:37;-2.18;63.18
72762;SHT30;60886;55.034;73.150;2023-04-07T06:48:38;-2.11;61.55
72762;SHT30;60886;55.034;73.150;2023-04-07T06:51:40;-2.31;60.81
72762;SHT30;60886;55.034;73.150;2023-04-07T06:54:44;-2.27;57.84
72762;SHT30;60886;55.034;73.150;2023-04-07T06:57:55;-2.30;54.60
72762;SHT30;60886;55.034;73.150;2023-04-07T07:01:07;-2.41;54.61
72762;SHT30;60886;55.034;73.150;2023-04-07T07:04:08;-2.42;55.46
72762;SHT30;60886;55.034;73.150;2023-04-07T07:07:10;-2.34;58.78
72762;SHT30;60886;55.034;73.150;2023-04-07T07:10:11;-2.24;60.59
72762;SHT30;60886;55.034;73.150;2023-04-07T07:13:24;-2.15;61.58
72762;SHT30;60886;55.034;73.150;2023-04-07T07:16:33;-2.20;60.73
72762;SHT30;60886;55.034;73.150;2023-04-07T07:19:34;-2.20;61.05
72762;SHT30;60886;55.034;73.150;2023-04-07T07:22:46;-2.27;60.33
72762;SHT30;60886;55.034;73.150;2023-04-07T07:25:47;-2.38;60.28
72762;SHT30;60886;55.034;73.150;2023-04-07T07:28:48;-2.24;62.06
72762;SHT30;60886;55.034;73.150;2023-04-07T07:31:50;-2.33;60.39
72762;SHT30;60886;55.034;73.150;2023-04-07T07:34:51;-2.28;62.26
72762;SHT30;60886;55.034;73.150;2023-04-07T07:37:53;-2.30;60.40
72762;SHT30;60886;55.034;73.150;2023-04-07T07:40:54;-2.38;59.62
72762;SHT30;60886;55.034;73.150;2023-04-07T07:43:55;-2.31;59.31
72762;SHT30;60886;55.034;73.150;2023-04-07T07:47:04;-2.31;59.70
72762;SHT30;60886;55.034;73.150;2023-04-07T07:50:10;-2.36;59.27
72762;SHT30;60886;55.034;73.150;2023-04-07T07:53:11;-2.21;58.32
72762;SHT30;60886;55.034;73.150;2023-04-07T07:56:12;-2.30;57.65
72762;SHT30;60886;55.034;73.150;2023-04-07T07:59:14;-2.24;56.45
72762;SHT30;60886;55.034;73.150;2023-04-07T08:02:18;-2.23;57.46
72762;SHT30;60886;55.034;73.150;2023-04-07T08:05:20;-2.18;57.16
72762;SHT30;60886;55.034;73.150;2023-04-07T08:08:21;-2.23;57.23
72762;SHT30;60886;55.034;73.150;2023-04-07T08:11:22;-2.21;57.67
72762;SHT30;60886;55.034;73.150;2023-04-07T08:14:24;-2.20;55.07
72762;SHT30;60886;55.034;73.150;2023-04-07T08:17:25;-2.07;56.98
72762;SHT30;60886;55.034;73.150;2023-04-07T08:20:26;-2.11;53.83
72762;SHT30;60886;55.034;73.150;2023-04-07T08:23:29;-2.17;53.13
72762;SHT30;60886;55.034;73.150;2023-04-07T08:26:31;-2.24;52.58
72762;SHT30;60886;55.034;73.150;2023-04-07T08:29:35;-2.23;53.34
72762;SHT30;60886;55.034;73.150;2023-04-07T08:32:41;-2.17;54.16
72762;SHT30;60886;55.034;73.150;2023-04-07T08:35:42;-2.01;53.48
72762;SHT30;60886;55.034;73.150;2023-04-07T08:38:44;-2.07;52.27
72762;SHT30;60886;55.034;73.150;2023-04-07T08:41:46;-2.18;49.64
72762;SHT30;60886;55.034;73.150;2023-04-07T08:44:49;-2.08;50.00
72762;SHT30;60886;55.034;73.150;2023-04-07T08:47:55;-2.15;51.50
72762;SHT30;60886;55.034;73.150;2023-04-07T08:51:00;-2.11;49.54
72762;SHT30;60886;55.034;73.150;2023-04-07T08:54:09;-2.21;50.09
72762;SHT30;60886;55.034;73.150;2023-04-07T08:57:14;-2.28;51.31
72762;SHT30;60886;55.034;73.150;2023-04-07T09:00:16;-2.15;52.09
72762;SHT30;60886;55.034;73.150;2023-04-07T09:03:18;-2.17;49.37
72762;SHT30;60886;55.034;73.150;2023-04-07T09:06:21;-2.14;49.43
72762;SHT30;60886;55.034;73.150;2023-04-07T09:09:22;-2.08;50.64
72762;SHT30;60886;55.034;73.150;2023-04-07T09:12:25;-2.07;47.35
72762;SHT30;60886;55.034;73.150;2023-04-07T09:15:30;-2.04;49.79
72762;SHT30;60886;55.034;73.150;2023-04-07T09:18:32;-1.97;48.09
72762;SHT30;60886;55.034;73.150;2023-04-07T09:21:50;-1.93;47.80
72762;SHT30;60886;55.034;73.150;2023-04-07T09:25:42;-1.89;46.46
72762;SHT30;60886;55.034;73.150;2023-04-07T09:28:39;-2.03;45.65
72762;SHT30;60886;55.034;73.150;2023-04-07T09:31:49;-2.07;46.95
72762;SHT30;60886;55.034;73.150;2023-04-07T09:35:09;-2.07;47.31
72762;SHT30;60886;55.034;73.150;2023-04-07T09:38:11;-2.13;46.19
72762;SHT30;60886;55.034;73.150;2023-04-07T09:41:14;-2.01;46.82
72762;SHT30;60886;55.034;73.150;2023-04-07T09:44:17;-2.03;45.33
72762;SHT30;60886;55.034;73.150;2023-04-07T09:47:25;-2.06;46.39
72762;SHT30;60886;55.034;73.150;2023-04-07T09:50:39;-1.98;46.98
72762;SHT30;60886;55.034;73.150;2023-04-07T09:53:49;-1.91;44.45
72762;SHT30;60886;55.034;73.150;2023-04-07T09:56:51;-1.93;45.17
72762;SHT30;60886;55.034;73.150;2023-04-07T09:59:53;-1.97;46.36
72762;SHT30;60886;55.034;73.150;2023-04-07T10:02:56;-2.04;45.29
72762;SHT30;60886;55.034;73.150;2023-04-07T10:05:59;-2.10;44.61
72762;SHT30;60886;55.034;73.150;2023-04-07T10:09:01;-2.15;44.67
72762;SHT30;60886;55.034;73.150;2023-04-07T10:12:02;-2.10;45.93
72762;SHT30;60886;55.034;73.150;2023-04-07T10:15:12;-1.90;47.88
72762;SHT30;60886;55.034;73.150;2023-04-07T10:18:19;-1.84;44.80
72762;SHT30;60886;55.034;73.150;2023-04-07T10:21:21;-1.94;46.02
72762;SHT30;60886;55.034;73.150;2023-04-07T10:24:47;-2.03;44.84
72762;SHT30;60886;55.034;73.150;2023-04-07T10:28:01;-2.10;44.11
72762;SHT30;60886;55.034;73.150;2023-04-07T10:31:04;-2.10;44.37
72762;SHT30;60886;55.034;73.150;2023-04-07T10:34:11;-2.11;43.92
72762;SHT30;60886;55.034;73.150;2023-04-07T10:37:13;-2.20;44.13
72762;SHT30;60886;55.034;73.150;2023-04-07T10:43:39;-2.03;46.11
72762;SHT30;60886;55.034;73.150;2023-04-07T10:50:17;-2.10;41.10
72762;SHT30;60886;55.034;73.150;2023-04-07T10:53:19;-2.20;42.00
72762;SHT30;60886;55.034;73.150;2023-04-07T10:56:21;-2.15;43.71
72762;SHT30;60886;55.034;73.150;2023-04-07T10:59:22;-2.23;43.44
72762;SHT30;60886;55.034;73.150;2023-04-07T11:05:29;-2.33;40.44
72762;SHT30;60886;55.034;73.150;2023-04-07T11:08:46;-2.44;40.53
72762;SHT30;60886;55.034;73.150;2023-04-07T11:11:47;-2.51;40.20
72762;SHT30;60886;55.034;73.150;2023-04-07T11:14:57;-2.52;39.85
72762;SHT30;60886;55.034;73.150;2023-04-07T11:18:14;-2.51;39.76
72762;SHT30;60886;55.034;73.150;2023-04-07T11:21:27;-2.44;39.66
72762;SHT30;60886;55.034;73.150;2023-04-07T11:24:39;-2.52;40.93
72762;SHT30;60886;55.034;73.150;2023-04-07T11:27:43;-2.40;41.54
72762;SHT30;60886;55.034;73.150;2023-04-07T11:30:51;-2.41;41.47
72762;SHT30;60886;55.034;73.150;2023-04-07T11:33:55;-2.42;42.58
72762;SHT30;60886;55.034;73.150;2023-04-07T11:36:58;-2.41;43.15
72762;SHT30;60886;55.034;73.150;2023-04-07T11:40:35;-2.44;41.12
72762;SHT30;60886;55.034;73.150;2023-04-07T11:43:37;-2.55;40.35
72762;SHT30;60886;55.034;73.150;2023-04-07T11:46:56;-2.66;39.91
72762;SHT30;60886;55.034;73.150;2023-04-07T11:49:57;-2.66;39.32
72762;SHT30;60886;55.034;73.150;2023-04-07T11:53:02;-2.73;37.45
72762;SHT30;60886;55.034;73.150;2023-04-07T11:56:05;-2.82;38.37
72762;SHT30;60886;55.034;73.150;2023-04-07T11:59:21;-2.89;39.66
72762;SHT30;60886;55.034;73.150;2023-04-07T12:02:33;-2.93;38.75
72762;SHT30;60886;55.034;73.150;2023-04-07T12:05:44;-2.88;40.62
72762;SHT30;60886;55.034;73.150;2023-04-07T12:08:45;-2.88;37.78
72762;SHT30;60886;55.034;73.150;2023-04-07T12:11:49;-2.86;38.87
72762;SHT30;60886;55.034;73.150;2023-04-07T12:14:51;-2.79;40.11
72762;SHT30;60886;55.034;73.150;2023-04-07T12:17:52;-2.71;43.20
72762;SHT30;60886;55.034;73.150;2023-04-07T12:20:55;-2.69;43.43
72762;SHT30;60886;55.034;73.150;2023-04-07T12:23:58;-2.72;41.96
72762;SHT30;60886;55.034;73.150;2023-04-07T12:27:05;-2.73;39.94
72762;SHT30;60886;55.034;73.150;2023-04-07T12:30:10;-2.85;36.43
72762;SHT30;60886;55.034;73.150;2023-04-07T12:33:12;-3.00;35.31
72762;SHT30;60886;55.034;73.150;2023-04-07T12:36:14;-3.10;35.58
72762;SHT30;60886;55.034;73.150;2023-04-07T12:39:25;-3.20;37.39
72762;SHT30;60886;55.034;73.150;2023-04-07T12:42:27;-3.21;36.80
72762;SHT30;60886;55.034;73.150;2023-04-07T12:45:34;-3.27;36.99
72762;SHT30;60886;55.034;73.150;2023-04-07T12:48:35;-3.30;37.58
72762;SHT30;60886;55.034;73.150;2023-04-07T12:51:37;-3.32;38.68
72762;SHT30;60886;55.034;73.150;2023-04-07T12:54:45;-3.39;39.33
72762;SHT30;60886;55.034;73.150;2023-04-07T12:57:46;-3.36;39.89
72762;SHT30;60886;55.034;73.150;2023-04-07T13:00:48;-3.40;39.96
72762;SHT30;60886;55.034;73.150;2023-04-07T13:03:52;-3.44;39.73
72762;SHT30;60886;55.034;73.150;2023-04-07T13:06:54;-3.51;37.50
72762;SHT30;60886;55.034;73.150;2023-04-07T13:09:55;-3.60;36.35
72762;SHT30;60886;55.034;73.150;2023-04-07T13:12:57;-3.68;36.56
72762;SHT30;60886;55.034;73.150;2023-04-07T13:15:58;-3.74;37.65
72762;SHT30;60886;55.034;73.150;2023-04-07T13:19:10;-3.81;38.04
72762;SHT30;60886;55.034;73.150;2023-04-07T13:22:11;-3.82;38.34
72762;SHT30;60886;55.034;73.150;2023-04-07T13:25:17;-3.88;38.14
72762;SHT30;60886;55.034;73.150;2023-04-07T13:28:19;-3.97;36.16
72762;SHT30;60886;55.034;73.150;2023-04-07T13:31:21;-4.02;36.73
72762;SHT30;60886;55.034;73.150;2023-04-07T13:34:23;-4.08;37.36
72762;SHT30;60886;55.034;73.150;2023-04-07T13:37:24;-4.15;37.91
72762;SHT30;60886;55.034;73.150;2023-04-07T13:40:26;-4.18;37.73
72762;SHT30;60886;55.034;73.150;2023-04-07T13:43:27;-4.22;38.06
72762;SHT30;60886;55.034;73.150;2023-04-07T13:46:29;-4.28;38.36
72762;SHT30;60886;55.034;73.150;2023-04-07T13:49:30;-4.33;38.50
72762;SHT30;60886;55.034;73.150;2023-04-07T13:52:32;-4.37;38.16
72762;SHT30;60886;55.034;73.150;2023-04-07T13:55:35;-4.42;38.65
72762;SHT30;60886;55.034;73.150;2023-04-07T13:58:39;-4.45;38.88
72762;SHT30;60886;55.034;73.150;2023-04-07T14:01:40;-4.49;39.27
72762;SHT30;60886;55.034;73.150;2023-04-07T14:04:41;-4.52;39.79
72762;SHT30;60886;55.034;73.150;2023-04-07T14:07:43;-4.59;38.24
72762;SHT30;60886;55.034;73.150;2023-04-07T14:10:50;-4.57;38.12
72762;SHT30;60886;55.034;73.150;2023-04-07T14:13:51;-4.66;37.96
72762;SHT30;60886;55.034;73.150;2023-04-07T14:17:03;-4.70;38.99
72762;SHT30;60886;55.034;73.150;2023-04-07T14:20:09;-4.72;40.36
72762;SHT30;60886;55.034;73.150;2023-04-07T14:23:21;-4.74;40.47
72762;SHT30;60886;55.034;73.150;2023-04-07T14:26:22;-4.77;40.74
72762;SHT30;60886;55.034;73.150;2023-04-07T14:29:23;-4.80;40.47
72762;SHT30;60886;55.034;73.150;2023-04-07T14:32:34;-4.84;40.37
72762;SHT30;60886;55.034;73.150;2023-04-07T14:35:36;-4.84;41.58
72762;SHT30;60886;55.034;73.150;2023-04-07T14:38:38;-4.87;41.66
72762;SHT30;60886;55.034;73.150;2023-04-07T14:41:39;-4.91;40.46
72762;SHT30;60886;55.034;73.150;2023-04-07T14:44:41;-4.93;40.87
72762;SHT30;60886;55.034;73.150;2023-04-07T14:47:47;-4.97;41.09
72762;SHT30;60886;55.034;73.150;2023-04-07T14:50:49;-4.95;40.61
72762;SHT30;60886;55.034;73.150;2023-04-07T14:53:55;-5.03;40.91
72762;SHT30;60886;55.034;73.150;2023-04-07T14:57:06;-5.05;40.08
72762;SHT30;60886;55.034;73.150;2023-04-07T15:00:10;-5.07;40.20
72762;SHT30;60886;55.034;73.150;2023-04-07T15:03:11;-5.11;40.20
72762;SHT30;60886;55.034;73.150;2023-04-07T15:06:13;-5.17;41.58
72762;SHT30;60886;55.034;73.150;2023-04-07T15:09:16;-5.17;40.41
72762;SHT30;60886;55.034;73.150;2023-04-07T15:12:19;-5.19;41.49
72762;SHT30;60886;55.034;73.150;2023-04-07T15:15:26;-5.19;41.75
72762;SHT30;60886;55.034;73.150;2023-04-07T15:18:33;-5.24;41.13
72762;SHT30;60886;55.034;73.150;2023-04-07T15:21:34;-5.27;41.28
72762;SHT30;60886;55.034;73.150;2023-04-07T15:24:46;-5.34;42.74
72762;SHT30;60886;55.034;73.150;2023-04-07T15:27:48;-5.35;41.54
72762;SHT30;60886;55.034;73.150;2023-04-07T15:30:49;-5.38;41.43
72762;SHT30;60886;55.034;73.150;2023-04-07T15:33:56;-5.39;40.21
72762;SHT30;60886;55.034;73.150;2023-04-07T15:36:57;-5.39;39.81
72762;SHT30;60886;55.034;73.150;2023-04-07T15:39:58;-5.47;40.19
72762;SHT30;60886;55.034;73.150;2023-04-07T15:43:10;-5.49;40.00
72762;SHT30;60886;55.034;73.150;2023-04-07T15:46:17;-5.55;40.29
72762;SHT30;60886;55.034;73.150;2023-04-07T15:49:27;-5.56;40.31
72762;SHT30;60886;55.034;73.150;2023-04-07T15:52:29;-5.56;40.55
72762;SHT30;60886;55.034;73.150;2023-04-07T15:55:32;-5.62;40.92
72762;SHT30;60886;55.034;73.150;2023-04-07T15:58:42;-5.65;42.08
72762;SHT30;60886;55.034;73.150;2023-04-07T16:01:55;-5.68;41.91
72762;SHT30;60886;55.034;73.150;2023-04-07T16:04:56;-5.70;41.75
72762;SHT30;60886;55.034;73.150;2023-04-07T16:07:58;-5.72;41.92
72762;SHT30;60886;55.034;73.150;2023-04-07T16:11:09;-5.78;41.69
72762;SHT30;60886;55.034;73.150;2023-04-07T16:14:13;-5.79;41.66
72762;SHT30;60886;55.034;73.150;2023-04-07T16:17:15;-5.82;41.63
72762;SHT30;60886;55.034;73.150;2023-04-07T16:20:26;-5.83;42.18
72762;SHT30;60886;55.034;73.150;2023-04-07T16:23:28;-5.86;42.17
72762;SHT30;60886;55.034;73.150;2023-04-07T16:26:29;-5.87;42.44
72762;SHT30;60886;55.034;73.150;2023-04-07T16:29:32;-5.87;41.81
72762;SHT30;60886;55.034;73.150;2023-04-07T16:32:33;-5.90;41.24
72762;SHT30;60886;55.034;73.150;2023-04-07T16:35:35;-5.92;41.42
72762;SHT30;60886;55.034;73.150;2023-04-07T16:38:37;-5.93;41.12
72762;SHT30;60886;55.034;73.150;2023-04-07T16:41:38;-5.97;42.02
72762;SHT30;60886;55.034;73.150;2023-04-07T16:44:39;-6.03;42.46
72762;SHT30;60886;55.034;73.150;2023-04-07T16:47:41;-6.04;41.86
72762;SHT30;60886;55.034;73.150;2023-04-07T16:50:53;-6.06;42.62
72762;SHT30;60886;55.034;73.150;2023-04-07T16:54:05;-6.09;43.16
72762;SHT30;60886;55.034;73.150;2023-04-07T16:57:16;-6.14;42.94
72762;SHT30;60886;55.034;73.150;2023-04-07T17:00:18;-6.14;43.40
72762;SHT30;60886;55.034;73.150;2023-04-07T17:03:25;-6.18;42.77
72762;SHT30;60886;55.034;73.150;2023-04-07T17:06:33;-6.21;43.70
72762;SHT30;60886;55.034;73.150;2023-04-07T17:09:40;-6.25;44.21
72762;SHT30;60886;55.034;73.150;2023-04-07T17:12:41;-6.28;44.43
72762;SHT30;60886;55.034;73.150;2023-04-07T17:15:42;-6.28;43.16
72762;SHT30;60886;55.034;73.150;2023-04-07T17:18:44;-6.30;44.25
72762;SHT30;60886;55.034;73.150;2023-04-07T17:21:46;-6.33;43.51
72762;SHT30;60886;55.034;73.150;2023-04-07T17:24:48;-6.35;42.07
72762;SHT30;60886;55.034;73.150;2023-04-07T17:27:49;-6.37;43.32
72762;SHT30;60886;55.034;73.150;2023-04-07T17:30:51;-6.38;42.98
72762;SHT30;60886;55.034;73.150;2023-04-07T17:33:52;-6.38;43.15
72762;SHT30;60886;55.034;73.150;2023-04-07T17:36:58;-6.44;44.57
72762;SHT30;60886;55.034;73.150;2023-04-07T17:40:09;-6.45;44.28
72762;SHT30;60886;55.034;73.150;2023-04-07T17:43:11;-6.51;42.48
72762;SHT30;60886;55.034;73.150;2023-04-07T17:46:12;-6.49;42.25
72762;SHT30;60886;55.034;73.150;2023-04-07T17:49:14;-6.51;42.08
72762;SHT30;60886;55.034;73.150;2023-04-07T17:52:15;-6.55;42.28
72762;SHT30;60886;55.034;73.150;2023-04-07T17:55:17;-6.61;43.06
72762;SHT30;60886;55.034;73.150;2023-04-07T17:58:18;-6.60;42.86
72762;SHT30;60886;55.034;73.150;2023-04-07T18:01:20;-6.65;43.48
72762;SHT30;60886;55.034;73.150;2023-04-07T18:04:36;-6.68;44.77
72762;SHT30;60886;55.034;73.150;2023-04-07T18:07:38;-6.68;46.19
72762;SHT30;60886;55.034;73.150;2023-04-07T18:10:39;-6.72;48.41
72762;SHT30;60886;55.034;73.150;2023-04-07T18:13:41;-6.72;50.15
72762;SHT30;60886;55.034;73.150;2023-04-07T18:16:42;-6.72;50.30
72762;SHT30;60886;55.034;73.150;2023-04-07T18:19:44;-6.72;50.62
72762;SHT30;60886;55.034;73.150;2023-04-07T18:22:46;-6.78;51.62
72762;SHT30;60886;55.034;73.150;2023-04-07T18:25:57;-6.77;50.25
72762;SHT30;60886;55.034;73.150;2023-04-07T18:28:59;-6.82;49.32
72762;SHT30;60886;55.034;73.150;2023-04-07T18:32:01;-6.84;48.89
72762;SHT30;60886;55.034;73.150;2023-04-07T18:35:09;-6.87;48.95
72762;SHT30;60886;55.034;73.150;2023-04-07T18:38:10;-6.88;46.69
72762;SHT30;60886;55.034;73.150;2023-04-07T18:41:12;-6.84;47.76
72762;SHT30;60886;55.034;73.150;2023-04-07T18:44:15;-6.89;50.37
72762;SHT30;60886;55.034;73.150;2023-04-07T18:47:16;-6.89;50.88
72762;SHT30;60886;55.034;73.150;2023-04-07T18:50:18;-6.89;49.93
72762;SHT30;60886;55.034;73.150;2023-04-07T18:53:20;-6.92;49.40
72762;SHT30;60886;55.034;73.150;2023-04-07T18:56:23;-6.95;47.53
72762;SHT30;60886;55.034;73.150;2023-04-07T18:59:27;-7.02;46.04
72762;SHT30;60886;55.034;73.150;2023-04-07T19:02:29;-7.03;46.24
72762;SHT30;60886;55.034;73.150;2023-04-07T19:05:30;-7.05;47.66
72762;SHT30;60886;55.034;73.150;2023-04-07T19:08:32;-7.05;47.37
72762;SHT30;60886;55.034;73.150;2023-04-07T19:11:33;-7.08;47.17
72762;SHT30;60886;55.034;73.150;2023-04-07T19:14:41;-7.08;48.32
72762;SHT30;60886;55.034;73.150;2023-04-07T19:17:45;-7.12;47.22
72762;SHT30;60886;55.034;73.150;2023-04-07T19:20:57;-7.13;48.45
72762;SHT30;60886;55.034;73.150;2023-04-07T19:23:58;-7.13;48.37
72762;SHT30;60886;55.034;73.150;2023-04-07T19:26:59;-7.16;48.82
72762;SHT30;60886;55.034;73.150;2023-04-07T19:30:09;-7.18;48.70